Time;durP1;ratioP1;P1;durP2;ratioP2;P2;SDS_P1;SDS_P2;PMS_P1;PMS_P2;Temp;Humidity;BMP_temperature;BMP_pressure;BME280_temperature;BME280_humidity;BME280_pressure;Samples;Min_cycle;Max_cycle;Signal;HPM_P1;HPM_P2
2023/01/14 00:01:32;;;;;;;9.43;4.28;;;;;;;5.42;86.21;98766.22;5066748;28;20066;-64
2023/01/14 00:03:58;;;;;;;8.15;4.80;;;;;;;5.39;88.48;98761.25;5033120;28;20052;-66
2023/01/14 00:06:26;;;;;;;9.30;4.40;;;;;;;5.17;88.27;98729.25;5028926;28;20372;-67
2023/01/14 00:09:00;;;;;;;7.22;4.32;;;;;;;5.33;87.37;98756.53;5030676;28;20064;-63
2023/01/14 00:14:14;;;;;;;9.45;4.30;;;;;;;5.48;87.27;98765.78;5051602;28;20090;-62
2023/01/14 00:16:40;;;;;;;6.93;4.10;;;;;;;5.41;85.51;98759.41;5030953;28;20039;-64
2023/01/14 00:19:06;;;;;;;9.30;3.72;;;;;;;5.44;83.88;98764.34;5060117;28;20093;-64
2023/01/14 00:21:31;;;;;;;7.03;3.67;;;;;;;5.43;85.22;98759.28;5051189;28;20062;-63
2023/01/14 00:23:57;;;;;;;8.43;4.20;;;;;;;5.46;85.01;98765.06;5046381;28;20621;-64
2023/01/14 00:26:24;;;;;;;8.05;4.00;;;;;;;5.47;84.64;98771.84;5057666;28;20033;-64
2023/01/14 00:28:50;;;;;;;7.28;3.90;;;;;;;5.46;84.51;98772.81;5042785;28;20033;-61
2023/01/14 00:31:19;;;;;;;9.32;4.10;;;;;;;5.53;85.64;98757.69;5045208;28;20097;-64
2023/01/14 00:33:45;;;;;;;7.95;3.90;;;;;;;5.57;85.90;98765.13;5049002;28;20130;-64
2023/01/14 00:36:14;;;;;;;6.70;3.63;;;;;;;5.61;84.05;98767.50;5035797;28;20033;-65
2023/01/14 00:38:40;;;;;;;9.13;4.07;;;;;;;5.67;84.78;98775.59;5032180;28;20032;-63
2023/01/14 00:41:14;;;;;;;9.40;3.80;;;;;;;5.47;81.23;98719.44;5032643;28;20040;-65
2023/01/14 00:43:45;;;;;;;5.95;2.90;;;;;;;6.10;75.29;98772.53;5025717;28;20032;-64
2023/01/14 00:46:23;;;;;;;5.95;3.30;;;;;;;6.16;76.82;98771.25;5026296;28;20051;-63
2023/01/14 00:48:48;;;;;;;7.55;3.58;;;;;;;5.90;82.31;98773.94;5017702;28;20089;-63
2023/01/14 00:51:15;;;;;;;7.57;3.78;;;;;;;5.72;83.14;98770.94;5030037;28;20605;-64
2023/01/14 00:53:42;;;;;;;8.27;3.70;;;;;;;5.64;84.54;98775.00;5040990;28;20032;-61
2023/01/14 00:56:08;;;;;;;6.40;3.47;;;;;;;5.65;86.27;98771.50;5047192;28;20033;-65
2023/01/14 00:58:35;;;;;;;8.02;3.85;;;;;;;5.47;86.83;98753.78;5026220;28;20074;-65
2023/01/14 01:01:00;;;;;;;7.15;3.88;;;;;;;5.50;84.65;98757.94;5046500;28;20032;-62
2023/01/14 01:03:26;;;;;;;6.97;3.53;;;;;;;5.66;79.85;98758.47;5059346;28;20032;-66
2023/01/14 01:05:52;;;;;;;7.18;3.85;;;;;;;5.70;82.04;98772.81;5033740;28;20442;-64
2023/01/14 01:08:21;;;;;;;6.38;3.55;;;;;;;5.61;82.63;98780.38;5017054;28;20113;-64
2023/01/14 01:10:49;;;;;;;7.32;3.80;;;;;;;5.37;82.04;98788.91;5060419;28;20028;-64
2023/01/14 01:13:15;;;;;;;7.15;3.38;;;;;;;5.18;80.29;98736.06;5041072;28;20029;-62
2023/01/14 01:15:41;;;;;;;7.10;3.25;;;;;;;5.56;81.10;98781.50;5026365;28;20135;-64
2023/01/14 01:18:09;;;;;;;6.30;3.33;;;;;;;5.42;82.74;98784.28;5023116;28;20123;-64
2023/01/14 01:20:34;;;;;;;7.32;3.55;;;;;;;5.40;81.73;98770.63;5021957;28;20044;-62
2023/01/14 01:23:00;;;;;;;6.15;2.85;;;;;;;5.52;78.94;98774.13;5045940;28;20048;-63
2023/01/14 01:25:26;;;;;;;6.07;2.65;;;;;;;5.60;79.43;98766.66;5041953;28;20032;-62
2023/01/14 01:27:53;;;;;;;7.45;2.78;;;;;;;5.77;74.13;98771.44;5040567;28;20042;-63
2023/01/14 01:30:19;;;;;;;7.53;2.15;;;;;;;6.21;68.62;98764.00;5043918;28;20063;-64
2023/01/14 01:32:44;;;;;;;4.88;1.98;;;;;;;6.67;63.59;98765.72;5048018;28;20028;-64
2023/01/14 01:35:10;;;;;;;4.35;1.42;;;;;;;7.12;59.02;98770.91;5046731;28;20060;-65
2023/01/14 01:37:36;;;;;;;4.15;1.63;;;;;;;7.18;58.76;98772.19;5060045;28;20036;-65
2023/01/14 01:40:01;;;;;;;5.10;2.10;;;;;;;7.17;59.61;98762.78;5046084;28;20468;-64
2023/01/14 01:42:33;;;;;;;3.53;1.40;;;;;;;7.29;56.97;98786.88;5028432;28;20069;-65
2023/01/14 01:45:21;;;;;;;4.10;1.73;;;;;;;7.33;56.67;98780.50;5030611;28;20037;-63
2023/01/14 01:47:48;;;;;;;4.00;1.52;;;;;;;7.31;55.76;98790.16;5057049;28;20099;-64
2023/01/14 01:50:14;;;;;;;3.60;1.33;;;;;;;7.53;54.15;98796.25;5044953;28;20359;-64
2023/01/14 01:52:40;;;;;;;3.78;1.40;;;;;;;7.56;54.07;98794.25;5043900;28;20490;-64
2023/01/14 01:55:08;;;;;;;4.93;1.52;;;;;;;7.65;54.71;98803.88;5024028;28;20065;-63
2023/01/14 01:57:33;;;;;;;4.30;1.60;;;;;;;7.51;55.93;98794.59;5043721;28;20193;-64
2023/01/14 02:00:03;;;;;;;4.38;1.58;;;;;;;7.29;54.73;98754.06;5028309;28;20020;-64
2023/01/14 02:02:29;;;;;;;4.40;1.70;;;;;;;7.40;57.86;98802.38;5028210;28;20087;-65
2023/01/14 02:04:55;;;;;;;4.72;1.90;;;;;;;7.38;56.43;98796.50;5027742;28;20454;-64
2023/01/14 02:07:25;;;;;;;4.30;1.80;;;;;;;7.53;55.43;98804.81;5034826;28;20107;-65
2023/01/14 02:09:53;;;;;;;3.90;1.33;;;;;;;7.51;54.13;98792.00;5041732;28;20107;-61
2023/01/14 02:12:37;;;;;;;5.22;1.85;;;;;;;7.45;55.80;98810.59;5040499;28;20043;-64
2023/01/14 02:15:25;;;;;;;4.20;1.65;;;;;;;7.19;56.47;98791.94;5037300;28;20090;-63
2023/01/14 02:17:53;;;;;;;4.25;1.35;;;;;;;7.39;53.88;98812.84;5055773;28;20035;-65
2023/01/14 02:20:40;;;;;;;3.50;1.33;;;;;;;7.27;56.17;98812.84;5038587;28;20063;-64
2023/01/14 02:23:24;;;;;;;3.95;1.50;;;;;;;7.16;57.98;98809.47;5027955;28;20044;-64
2023/01/14 02:25:56;;;;;;;5.28;1.90;;;;;;;7.12;60.23;98804.53;5045355;28;20107;-63
2023/01/14 02:29:15;;;;;;;7.43;2.92;;;;;;;6.77;67.51;98809.78;5042826;28;20476;-64
2023/01/14 02:31:52;;;;;;;7.20;2.97;;;;;;;6.54;74.74;98816.69;4982366;28;20030;-64
2023/01/14 02:34:25;;;;;;;5.65;2.83;;;;;;;6.42;75.57;98807.25;5044529;28;20063;-64
2023/01/14 02:36:57;;;;;;;6.93;2.80;;;;;;;6.24;79.26;98810.25;5028931;28;20364;-63
2023/01/14 02:39:28;;;;;;;6.57;2.90;;;;;;;6.09;79.08;98795.88;5031642;28;20044;-65
2023/01/14 02:44:52;;;;;;;6.50;2.50;;;;;;;6.25;73.74;98803.34;5041360;28;20119;-64
2023/01/14 02:47:20;;;;;;;6.25;2.25;;;;;;;6.23;77.50;98811.19;5043929;28;20087;-63
2023/01/14 02:49:49;;;;;;;5.20;2.20;;;;;;;5.88;73.43;98755.19;5035126;28;20054;-64
2023/01/14 02:52:14;;;;;;;4.55;1.80;;;;;;;6.44;71.01;98813.13;5024884;28;20466;-63
2023/01/14 02:54:40;;;;;;;4.40;1.85;;;;;;;6.45;68.84;98794.13;5029190;28;20028;-65
2023/01/14 02:57:18;;;;;;;4.82;1.90;;;;;;;6.46;68.63;98800.91;5040502;28;20388;-65
2023/01/14 03:00:07;;;;;;;5.32;2.30;;;;;;;6.56;70.84;98803.66;5028800;28;20123;-65
2023/01/14 03:02:47;;;;;;;6.60;2.00;;;;;;;6.32;70.91;98768.38;5061142;28;20039;-65
2023/01/14 03:05:51;;;;;;;5.43;2.30;;;;;;;6.38;72.88;98778.25;5025025;28;20029;-65
2023/01/14 03:08:30;;;;;;;5.13;2.10;;;;;;;6.29;74.86;98794.41;5033741;28;20072;-65
2023/01/14 03:11:01;;;;;;;5.25;1.92;;;;;;;6.10;75.55;98784.63;5037335;28;20032;-64
2023/01/14 03:13:39;;;;;;;5.03;2.00;;;;;;;6.09;74.42;98777.81;5042366;28;20024;-65
2023/01/14 03:16:23;;;;;;;4.75;2.08;;;;;;;6.04;73.30;98785.91;5040844;28;20024;-65
2023/01/14 03:19:05;;;;;;;4.88;1.90;;;;;;;6.09;73.48;98777.81;5047129;28;20560;-64
2023/01/14 03:21:34;;;;;;;4.82;1.80;;;;;;;6.14;73.58;98762.81;5045943;28;20668;-64
2023/01/14 03:24:07;;;;;;;4.00;1.30;;;;;;;6.41;64.62;98774.63;5031898;28;20021;-65
2023/01/14 03:26:35;;;;;;;4.00;1.40;;;;;;;6.66;59.35;98776.16;5027594;28;20039;-63
2023/01/14 03:29:04;;;;;;;4.10;1.10;;;;;;;6.84;60.60;98771.38;5030937;28;20063;-63
2023/01/14 03:31:32;;;;;;;3.35;1.02;;;;;;;6.87;56.15;98779.72;5047597;28;20020;-64
2023/01/14 03:34:02;;;;;;;4.00;1.38;;;;;;;7.31;57.58;98785.81;5043874;28;20028;-66
2023/01/14 03:36:29;;;;;;;3.63;1.20;;;;;;;7.17;55.86;98738.69;5035535;28;20102;-65
2023/01/14 03:38:58;;;;;;;2.47;0.90;;;;;;;7.58;51.74;98771.66;5044672;28;20021;-64
2023/01/14 03:44:26;;;;;;;3.25;1.13;;;;;;;7.18;57.49;98710.13;5043705;28;20399;-66
2023/01/14 03:46:53;;;;;;;2.25;0.70;;;;;;;7.66;50.29;98760.69;5025788;28;20072;-63
2023/01/14 03:49:18;;;;;;;2.53;0.60;;;;;;;7.98;46.53;98723.63;5042052;28;20553;-64
2023/01/14 03:52:12;;;;;;;1.67;0.60;;;;;;;8.45;45.87;98752.56;5041193;28;20036;-65
2023/01/14 03:55:01;;;;;;;1.88;0.57;;;;;;;8.41;46.30;98751.97;5028763;28;20028;-62
2023/01/14 03:57:32;;;;;;;2.42;0.70;;;;;;;8.45;45.23;98744.78;5046733;28;20028;-62
2023/01/14 04:00:04;;;;;;;1.55;0.50;;;;;;;8.25;45.25;98703.22;5044002;28;20024;-64
2023/01/14 04:02:30;;;;;;;2.90;0.70;;;;;;;8.37;46.11;98736.81;5042186;28;20086;-65
2023/01/14 04:04:56;;;;;;;2.35;0.70;;;;;;;8.30;46.38;98736.50;5042153;28;20028;-64
2023/01/14 04:07:24;;;;;;;2.17;0.70;;;;;;;8.34;45.68;98732.72;5038010;28;20040;-65
2023/01/14 04:09:49;;;;;;;2.28;0.60;;;;;;;8.40;44.36;98733.97;5029258;28;20529;-65
2023/01/14 04:12:15;;;;;;;1.92;0.57;;;;;;;8.44;44.67;98737.97;5042265;28;20128;-64
2023/01/14 04:17:24;;;;;;;1.88;0.73;;;;;;;8.64;43.74;98754.47;5047924;28;20044;-64
2023/01/14 04:19:50;;;;;;;2.40;0.57;;;;;;;8.50;44.48;98749.59;5043250;28;20033;-65
2023/01/14 04:22:17;;;;;;;2.10;0.55;;;;;;;8.36;43.00;98711.84;5039042;28;20088;-65
2023/01/14 04:24:42;;;;;;;1.95;0.70;;;;;;;8.46;45.32;98744.66;5021911;28;20036;-65
2023/01/14 04:27:08;;;;;;;2.00;0.90;;;;;;;8.55;44.25;98753.44;5042335;28;20036;-64
2023/01/14 04:29:33;;;;;;;1.33;0.40;;;;;;;8.33;43.88;98722.50;5026082;28;20710;-66
2023/01/14 04:31:59;;;;;;;2.05;0.50;;;;;;;8.43;45.46;98751.88;5024139;28;20147;-65
2023/01/14 04:34:24;;;;;;;2.05;0.55;;;;;;;8.34;45.67;98758.63;5045198;28;20086;-64
2023/01/14 04:36:50;;;;;;;1.50;0.65;;;;;;;8.09;48.81;98750.28;5046805;28;20035;-64
2023/01/14 04:39:15;;;;;;;2.80;0.80;;;;;;;8.07;47.68;98752.16;5048063;28;20581;-63
2023/01/14 04:44:24;;;;;;;1.45;0.45;;;;;;;8.13;46.81;98768.97;5063822;28;20163;-65
2023/01/14 04:46:50;;;;;;;3.33;0.63;;;;;;;7.78;46.32;98730.41;5034808;28;20537;-65
2023/01/14 04:49:16;;;;;;;1.10;0.40;;;;;;;8.17;45.35;98791.09;5059127;28;20029;-65
2023/01/14 04:51:41;;;;;;;1.63;0.60;;;;;;;8.23;45.14;98780.25;5028496;28;20503;-66
2023/01/14 04:54:07;;;;;;;1.55;0.50;;;;;;;8.15;45.51;98794.75;5068339;28;20592;-65
2023/01/14 04:56:33;;;;;;;2.08;0.50;;;;;;;8.03;44.34;98796.56;5043524;28;20163;-65
2023/01/14 04:59:01;;;;;;;1.13;0.40;;;;;;;8.15;44.12;98802.53;5047500;28;20031;-65
2023/01/14 05:01:28;;;;;;;0.55;0.32;;;;;;;7.94;44.41;98784.34;5022553;28;20052;-66
2023/01/14 05:03:54;;;;;;;1.33;0.50;;;;;;;8.06;46.60;98824.81;5045222;28;20028;-65
2023/01/14 05:06:20;;;;;;;2.90;0.90;;;;;;;7.57;49.97;98821.75;5022682;28;20048;-64
2023/01/14 05:08:47;;;;;;;3.25;1.10;;;;;;;7.30;51.08;98817.81;5046014;28;20458;-64
2023/01/14 05:11:13;;;;;;;3.75;1.40;;;;;;;7.15;52.15;98810.41;5036897;28;20055;-65
2023/01/14 05:13:38;;;;;;;3.42;1.38;;;;;;;6.88;52.95;98803.78;5046739;28;20017;-65
2023/01/14 05:16:04;;;;;;;11.35;1.52;;;;;;;6.74;54.28;98813.41;5025902;28;20043;-65
2023/01/14 05:18:30;;;;;;;4.07;1.42;;;;;;;6.63;55.07;98821.16;5047168;28;20368;-65
2023/01/14 05:20:55;;;;;;;4.20;1.80;;;;;;;6.60;54.91;98816.22;5048825;28;20032;-65
2023/01/14 05:23:21;;;;;;;3.83;1.50;;;;;;;6.20;56.26;98810.59;5047096;28;20017;-66
2023/01/14 05:25:47;;;;;;;4.68;1.60;;;;;;;6.24;56.69;98817.16;5029794;28;20078;-65
2023/01/14 05:28:15;;;;;;;4.47;1.50;;;;;;;5.95;57.79;98822.66;5061338;28;20025;-64
2023/01/14 05:30:40;;;;;;;3.65;1.15;;;;;;;6.03;58.27;98841.03;5044317;28;20036;-65
2023/01/14 05:33:06;;;;;;;4.60;1.70;;;;;;;5.38;59.27;98801.72;5037576;28;20378;-66
2023/01/14 05:35:32;;;;;;;5.15;1.60;;;;;;;5.58;60.90;98830.41;5028894;28;20124;-65
2023/01/14 05:37:58;;;;;;;4.43;1.67;;;;;;;5.46;61.48;98849.31;5045817;28;20115;-66
2023/01/14 05:40:24;;;;;;;4.15;1.50;;;;;;;5.30;61.32;98826.38;5049973;28;20131;-64
2023/01/14 05:45:48;;;;;;;4.90;1.85;;;;;;;5.07;63.08;98813.28;5044644;28;20102;-66
2023/01/14 05:48:15;;;;;;;4.40;1.58;;;;;;;5.26;64.52;98840.41;5037540;28;20034;-66
2023/01/14 05:50:40;;;;;;;3.88;1.42;;;;;;;4.96;64.06;98797.75;5031485;28;20095;-66
2023/01/14 05:53:06;;;;;;;4.60;1.60;;;;;;;5.16;63.61;98817.81;5045414;28;20056;-66
2023/01/14 05:55:32;;;;;;;4.88;1.80;;;;;;;5.13;65.17;98815.47;5048222;28;20035;-65
2023/01/14 05:57:59;;;;;;;3.90;1.50;;;;;;;5.08;65.17;98819.28;5065599;28;20766;-65
2023/01/14 06:08:46;;;;;;;5.90;1.42;;;;;;;4.58;67.60;98824.31;5041796;28;20055;-65
2023/01/14 06:11:12;;;;;;;5.18;1.70;;;;;;;4.65;67.68;98845.34;5066248;28;20467;-66
2023/01/14 06:13:37;;;;;;;5.80;1.73;;;;;;;4.60;68.31;98851.63;5030804;28;20093;-64
2023/01/14 06:16:06;;;;;;;4.40;1.60;;;;;;;4.64;68.67;98865.16;5031152;28;20024;-63
2023/01/14 06:18:38;;;;;;;4.95;2.08;;;;;;;4.70;68.72;98869.88;5032563;28;20043;-65
2023/01/14 06:21:06;;;;;;;4.70;1.85;;;;;;;4.52;68.94;98876.25;5059912;28;20028;-64
2023/01/14 06:23:31;;;;;;;6.03;1.92;;;;;;;4.50;69.42;98878.91;5031239;28;20039;-65
2023/01/14 06:25:57;;;;;;;5.90;2.03;;;;;;;4.55;69.61;98881.19;5046828;28;20510;-64
2023/01/14 06:28:22;;;;;;;5.55;1.80;;;;;;;4.59;68.61;98874.91;5043817;28;20040;-65
2023/01/14 06:30:48;;;;;;;4.53;1.50;;;;;;;4.49;69.42;98874.69;5054042;28;20036;-65
2023/01/14 06:33:14;;;;;;;4.68;2.00;;;;;;;4.37;69.77;98878.88;5047413;28;20608;-66
2023/01/14 06:35:42;;;;;;;5.10;2.00;;;;;;;4.15;70.45;98873.47;5064526;28;20112;-66
2023/01/14 06:38:08;;;;;;;4.88;2.20;;;;;;;4.00;70.85;98876.09;5027887;28;20741;-66
2023/01/14 06:40:34;;;;;;;5.45;2.00;;;;;;;3.90;71.01;98884.47;5062466;28;20025;-66
2023/01/14 06:42:59;;;;;;;5.25;2.10;;;;;;;3.95;71.67;98890.97;5026314;28;20032;-66
2023/01/14 06:45:25;;;;;;;6.00;2.83;;;;;;;3.62;71.81;98863.84;5041628;28;20032;-67
2023/01/14 06:47:51;;;;;;;5.80;2.50;;;;;;;3.65;72.22;98909.13;5050306;28;20020;-65
2023/01/14 06:50:20;;;;;;;7.60;2.80;;;;;;;3.85;70.99;98903.59;5033028;28;20033;-67
2023/01/14 06:52:45;;;;;;;5.90;2.80;;;;;;;3.76;71.42;98918.75;5065706;28;20016;-65
2023/01/14 06:55:11;;;;;;;5.95;2.58;;;;;;;3.64;71.93;98915.19;5057750;28;20364;-65
2023/01/14 06:57:37;;;;;;;6.35;2.63;;;;;;;3.89;70.86;98929.97;5044406;28;20181;-65
2023/01/14 07:00:04;;;;;;;6.18;2.58;;;;;;;3.82;71.33;98926.09;5043007;28;20379;-65
2023/01/14 07:02:29;;;;;;;7.22;2.55;;;;;;;3.79;71.33;98939.16;5030196;28;20467;-66
2023/01/14 07:04:55;;;;;;;6.18;2.75;;;;;;;3.85;70.75;98944.75;5045209;28;20024;-65
2023/01/14 07:07:20;;;;;;;7.57;2.97;;;;;;;3.24;72.29;98945.84;5035537;28;20040;-62
2023/01/14 07:09:46;;;;;;;5.97;2.63;;;;;;;3.21;73.92;98949.44;5025631;28;20032;-63
2023/01/14 07:12:11;;;;;;;7.32;2.65;;;;;;;3.04;74.24;98899.03;5043861;28;20032;-64
2023/01/14 07:14:37;;;;;;;5.50;2.50;;;;;;;3.42;74.07;98933.66;5049299;28;20463;-63
2023/01/14 07:17:03;;;;;;;6.32;2.60;;;;;;;3.51;73.74;98938.25;5035897;28;20036;-65
2023/01/14 07:19:29;;;;;;;7.22;2.60;;;;;;;3.46;73.87;98938.50;5028065;28;20095;-65
2023/01/14 07:21:54;;;;;;;7.03;2.78;;;;;;;3.52;74.13;98937.31;5029129;28;20020;-64
2023/01/14 07:24:20;;;;;;;5.68;2.33;;;;;;;3.38;75.21;98921.91;5064032;28;20036;-65
2023/01/14 07:26:45;;;;;;;5.57;2.22;;;;;;;3.64;75.32;98935.78;5066840;28;20098;-64
2023/01/14 07:29:11;;;;;;;6.90;3.63;;;;;;;3.74;75.37;98923.16;5065025;28;20487;-65
2023/01/14 07:31:36;;;;;;;8.02;2.72;;;;;;;3.64;74.25;98928.06;5027998;28;20047;-65
2023/01/14 07:34:03;;;;;;;7.22;2.70;;;;;;;3.66;74.26;98932.16;5064018;28;20032;-66
2023/01/14 07:36:28;;;;;;;6.47;2.58;;;;;;;3.45;74.60;98929.16;5035782;28;20093;-65
2023/01/14 07:38:53;;;;;;;5.43;2.15;;;;;;;3.42;76.00;98926.78;5063651;28;20033;-64
2023/01/14 07:41:20;;;;;;;6.63;2.70;;;;;;;3.53;77.01;98918.41;5030881;28;20025;-64
2023/01/14 07:43:45;;;;;;;6.88;2.50;;;;;;;3.63;78.22;98922.09;5062630;28;20136;-66
2023/01/14 07:46:11;;;;;;;7.25;2.40;;;;;;;3.71;78.11;98921.63;5026353;28;20124;-64
2023/01/14 07:48:36;;;;;;;5.38;2.30;;;;;;;3.70;77.61;98916.56;5046616;28;20052;-65
2023/01/14 07:51:03;;;;;;;7.18;2.80;;;;;;;3.74;77.59;98923.16;5031343;28;20036;-65
2023/01/14 07:53:29;;;;;;;6.95;2.58;;;;;;;3.66;77.17;98921.06;5029398;28;20036;-65
2023/01/14 07:55:55;;;;;;;8.18;2.90;;;;;;;3.63;78.62;98924.66;5047427;28;20031;-63
2023/01/14 07:58:21;;;;;;;6.70;2.75;;;;;;;3.64;78.85;98941.72;5044549;28;20048;-62
2023/01/14 08:00:47;;;;;;;6.07;2.65;;;;;;;3.36;80.81;98957.16;5024540;28;20128;-65
2023/01/14 08:03:13;;;;;;;6.30;2.60;;;;;;;3.35;78.98;98978.66;5044978;28;20119;-66
2023/01/14 08:05:38;;;;;;;5.32;2.20;;;;;;;3.57;77.78;98978.19;5047679;28;20390;-66
2023/01/14 08:08:04;;;;;;;5.95;2.65;;;;;;;3.68;76.06;98978.38;5043996;28;20029;-66
2023/01/14 08:10:29;;;;;;;5.55;2.25;;;;;;;3.64;76.97;99000.06;5032138;28;20299;-65
2023/01/14 08:12:55;;;;;;;5.80;2.45;;;;;;;3.59;76.56;99000.31;5055677;28;20021;-65
2023/01/14 08:15:20;;;;;;;6.47;2.45;;;;;;;3.47;76.75;98998.50;5064017;28;20662;-63
2023/01/14 08:17:46;;;;;;;6.53;2.50;;;;;;;3.58;76.80;99003.00;5068048;28;21215;-65
2023/01/14 08:20:12;;;;;;;6.97;2.10;;;;;;;3.76;75.72;99031.94;5048087;28;20028;-66
2023/01/14 08:22:38;;;;;;;5.03;1.55;;;;;;;4.18;67.21;99025.09;5049777;28;20136;-65
2023/01/14 08:25:04;;;;;;;3.85;1.17;;;;;;;4.35;66.04;99027.47;5047061;28;20040;-66
2023/01/14 08:27:30;;;;;;;4.68;1.50;;;;;;;4.63;63.37;99028.31;5033328;28;20605;-65
2023/01/14 08:29:56;;;;;;;5.03;1.20;;;;;;;4.45;63.53;98991.69;5046864;28;20135;-64
2023/01/14 08:32:22;;;;;;;4.25;1.20;;;;;;;4.78;63.35;99034.25;5025574;28;20677;-66
2023/01/14 08:34:49;;;;;;;4.30;1.27;;;;;;;5.00;60.93;99034.56;5027436;28;20147;-65
2023/01/14 08:37:15;;;;;;;3.95;1.50;;;;;;;5.08;61.35;99028.88;5044301;28;20040;-66
2023/01/14 08:39:41;;;;;;;6.50;1.27;;;;;;;5.10;61.01;99042.50;5046796;28;20040;-65
2023/01/14 08:42:06;;;;;;;3.30;1.20;;;;;;;4.91;60.84;99013.69;5044396;28;20570;-67
2023/01/14 08:44:32;;;;;;;5.15;2.10;;;;;;;5.16;62.25;99052.41;5044922;28;20031;-65
2023/01/14 08:46:58;;;;;;;6.88;3.08;;;;;;;5.11;63.38;99056.22;5029308;28;20364;-66
2023/01/14 08:49:23;;;;;;;5.35;2.30;;;;;;;5.15;64.13;99078.31;5050828;28;20078;-66
2023/01/14 08:51:49;;;;;;;5.70;2.50;;;;;;;5.06;64.61;99081.47;5049903;28;20419;-66
2023/01/14 08:54:14;;;;;;;5.95;2.20;;;;;;;5.04;65.49;99078.16;5034784;28;20035;-65
2023/01/14 08:56:40;;;;;;;4.63;1.70;;;;;;;5.09;70.34;99066.66;5064710;28;20730;-63
2023/01/14 08:59:05;;;;;;;4.63;1.73;;;;;;;4.91;69.90;99018.84;5032028;28;20028;-66
2023/01/14 09:01:31;;;;;;;4.10;1.45;;;;;;;5.14;70.75;99064.56;5048148;28;20075;-65
2023/01/14 09:04:00;;;;;;;5.85;1.75;;;;;;;5.10;71.37;99063.13;5045756;28;20027;-65
2023/01/14 09:06:26;;;;;;;5.60;1.80;;;;;;;5.09;72.40;99066.66;5045739;28;20083;-66
2023/01/14 09:17:12;;;;;;;5.28;1.50;;;;;;;4.96;74.67;99065.75;5035046;28;20063;-67
2023/01/14 09:19:53;;;;;;;9.23;3.65;;;;;;;4.87;73.92;99051.69;5045170;28;20028;-66
2023/01/14 09:22:22;;;;;;;6.38;2.15;;;;;;;4.85;73.62;99056.13;5030732;28;20110;-66
2023/01/14 09:24:48;;;;;;;6.53;2.80;;;;;;;4.68;74.34;99035.78;5028459;28;20196;-66
2023/01/14 09:27:14;;;;;;;5.40;2.47;;;;;;;4.74;75.54;99032.81;5042247;28;20459;-65
2023/01/14 09:29:40;;;;;;;5.05;2.30;;;;;;;4.96;74.72;99073.50;5036989;28;20405;-67
2023/01/14 09:32:11;;;;;;;5.15;2.00;;;;;;;5.00;74.74;99074.94;5024162;28;20021;-67
2023/01/14 09:34:49;;;;;;;6.30;2.08;;;;;;;5.07;74.47;99076.19;5023696;28;20087;-66
2023/01/14 09:37:21;;;;;;;6.35;2.40;;;;;;;5.05;76.24;99083.22;5040524;28;20031;-67
2023/01/14 09:39:47;;;;;;;6.70;2.58;;;;;;;5.00;77.42;99073.22;5039891;28;20056;-66
2023/01/14 09:42:28;;;;;;;7.07;2.50;;;;;;;4.96;74.64;99082.03;5033860;28;20563;-66
2023/01/14 09:45:07;;;;;;;7.47;3.00;;;;;;;4.92;72.68;99069.47;5029555;28;20047;-66
2023/01/14 09:47:33;;;;;;;5.90;2.47;;;;;;;4.90;73.12;99058.44;5033917;28;20034;-66
2023/01/14 09:49:59;;;;;;;8.35;2.90;;;;;;;5.03;73.75;99082.47;5016155;28;20028;-67
2023/01/14 09:53:01;;;;;;;6.85;2.90;;;;;;;4.89;74.63;99085.97;5048756;28;20080;-67
2023/01/14 09:55:41;;;;;;;3.97;1.65;;;;;;;5.23;67.04;99082.97;5009753;28;20045;-66
2023/01/14 09:58:12;;;;;;;;;;;;;;;5.13;70.11;99086.13;5029556;28;20028;-67
2023/01/14 10:00:55;;;;;;;7.03;2.20;;;;;;;5.10;69.72;99073.44;5031620;28;19921;-67
2023/01/14 10:03:25;;;;;;;5.50;2.30;;;;;;;5.11;70.53;99069.94;5029624;28;20551;-67
2023/01/14 10:06:02;;;;;;;5.20;1.85;;;;;;;5.13;73.47;99086.13;5022352;28;20066;-67
2023/01/14 10:08:33;;;;;;;5.43;2.35;;;;;;;5.10;72.29;99070.84;5010850;28;20047;-67
2023/01/14 10:11:00;;;;;;;6.80;2.50;;;;;;;5.17;73.24;99079.84;5018399;28;20048;-67
2023/01/14 10:13:34;;;;;;;5.47;3.13;;;;;;;5.36;69.86;99078.66;5019750;28;20122;-67
2023/01/14 10:16:09;;;;;;;5.70;2.65;;;;;;;5.55;67.92;99071.38;5028884;28;20063;-67
2023/01/14 10:18:49;;;;;;;4.72;1.75;;;;;;;5.86;65.36;99081.38;5028570;28;20112;-67
2023/01/14 10:21:29;;;;;;;5.57;2.60;;;;;;;6.02;66.22;99083.78;5042902;28;20070;-67
2023/01/14 10:23:56;;;;;;;;;;;;;;;6.02;66.98;99076.06;5011921;28;20040;-66
2023/01/14 10:26:22;;;;;;;5.72;2.10;;;;;;;5.92;67.66;99070.66;5011555;28;19939;-66
2023/01/14 10:28:51;;;;;;;5.00;1.70;;;;;;;6.01;64.35;99057.16;5035840;28;20032;-66
2023/01/14 10:31:31;;;;;;;4.50;1.52;;;;;;;6.13;61.49;99052.91;5024441;28;20828;-66
2023/01/14 10:33:57;;;;;;;;;;;;;;;6.15;63.46;99059.63;5037962;28;20056;-67
2023/01/14 10:36:24;;;;;;;3.70;1.38;;;;;;;6.24;63.08;99065.06;5023791;28;19916;-66
2023/01/14 10:38:50;;;;;;;5.45;1.60;;;;;;;6.16;63.49;99071.59;5025310;28;20483;-67
2023/01/14 10:41:48;;;;;;;4.90;1.77;;;;;;;6.22;62.81;99065.19;5019450;28;20119;-66
2023/01/14 10:44:03;;;;;;;3.80;1.40;;;;;;;6.21;61.27;99024.00;5030903;28;20686;-66
2023/01/14 10:46:29;;;;;;;4.05;1.50;;;;;;;6.73;58.59;99059.03;5034461;28;20835;-66
2023/01/14 10:49:05;;;;;;;5.43;1.67;;;;;;;7.01;57.83;99050.16;5018531;28;20040;-66
2023/01/14 10:51:37;;;;;;;4.65;1.90;;;;;;;7.07;57.10;99048.88;5017895;28;20147;-67
2023/01/14 10:54:23;;;;;;;5.93;1.58;;;;;;;7.06;65.27;99039.47;5008568;28;20090;-66
2023/01/14 10:56:56;;;;;;;4.95;1.60;;;;;;;6.73;63.21;98992.69;5034167;28;20778;-67
2023/01/14 10:59:32;;;;;;;4.65;1.73;;;;;;;7.00;63.45;99032.16;5035229;28;20039;-66
2023/01/14 11:01:58;;;;;;;4.75;1.67;;;;;;;7.02;61.37;99025.94;5011525;28;20066;-66
2023/01/14 11:04:32;;;;;;;4.38;1.40;;;;;;;7.04;61.71;99034.41;5012684;28;20144;-66
2023/01/14 11:06:58;;;;;;;5.30;1.50;;;;;;;7.10;61.30;99017.59;5030767;28;20035;-66
2023/01/14 11:09:30;;;;;;;4.53;1.58;;;;;;;7.18;59.91;99019.66;5028042;28;20040;-67
2023/01/14 11:11:57;;;;;;;4.25;1.40;;;;;;;7.21;57.44;99009.91;5041254;28;20698;-66
2023/01/14 11:14:31;;;;;;;5.28;1.60;;;;;;;7.44;56.70;99028.06;5020695;28;20127;-66
2023/01/14 11:16:58;;;;;;;5.35;1.50;;;;;;;7.49;52.72;99020.78;5011836;28;20079;-66
2023/01/14 11:19:24;;;;;;;4.35;1.73;;;;;;;7.38;52.10;98985.34;5045701;28;20140;-66
2023/01/14 11:21:55;;;;;;;4.60;1.90;;;;;;;7.72;54.61;99021.66;5045736;28;20036;-65
2023/01/14 11:24:30;;;;;;;5.15;1.50;;;;;;;7.58;60.39;99030.44;5018339;28;20032;-66
2023/01/14 11:27:05;;;;;;;4.10;1.55;;;;;;;7.45;62.23;99033.13;5027301;28;20187;-66
2023/01/14 11:29:36;;;;;;;4.05;1.48;;;;;;;7.43;61.25;99035.00;5034590;28;20690;-67
2023/01/14 11:32:07;;;;;;;5.05;1.40;;;;;;;7.40;61.21;99032.63;5019182;28;20021;-66
2023/01/14 11:34:38;;;;;;;3.60;1.20;;;;;;;7.54;61.43;99026.44;5036541;28;20032;-66
2023/01/14 11:37:10;;;;;;;4.07;1.35;;;;;;;7.57;60.60;99026.19;5033991;28;20029;-66
2023/01/14 11:39:38;;;;;;;3.88;1.50;;;;;;;7.44;61.48;98995.22;5046541;28;20039;-67
2023/01/14 11:42:23;;;;;;;5.07;1.58;;;;;;;7.57;61.94;99012.44;5018065;28;20691;-65
2023/01/14 11:45:07;;;;;;;4.75;1.48;;;;;;;7.65;60.66;99004.94;5031115;28;20178;-65
2023/01/14 11:47:49;;;;;;;5.00;1.73;;;;;;;7.65;57.52;99000.56;5047996;28;20028;-67
2023/01/14 11:50:20;;;;;;;4.30;1.60;;;;;;;7.71;58.82;98994.09;5036858;28;20108;-67
2023/01/14 11:53:08;;;;;;;4.35;1.73;;;;;;;7.76;59.87;98978.19;5017591;28;20029;-66
2023/01/14 11:55:38;;;;;;;4.63;2.00;;;;;;;7.78;59.35;98984.91;5018005;28;20032;-66
2023/01/14 11:58:21;;;;;;;5.65;1.58;;;;;;;7.65;57.78;98941.03;5024994;28;20123;-66
2023/01/14 12:01:01;;;;;;;3.95;1.50;;;;;;;8.00;57.34;98978.09;5017536;28;20116;-67
2023/01/14 12:03:48;;;;;;;4.50;1.50;;;;;;;7.93;53.61;98963.97;5051455;28;20036;-66
2023/01/14 12:06:16;;;;;;;3.90;1.42;;;;;;;7.97;53.50;98957.59;5051385;28;20029;-66
2023/01/14 12:08:44;;;;;;;4.97;1.73;;;;;;;7.96;54.10;98945.59;5042647;28;20504;-67
2023/01/14 12:11:16;;;;;;;4.07;1.60;;;;;;;7.99;53.99;98938.41;5032670;28;20028;-66
2023/01/14 12:16:51;;;;;;;5.10;1.55;;;;;;;8.00;53.80;98939.25;5035055;28;20276;-66
2023/01/14 12:19:16;;;;;;;3.90;1.70;;;;;;;8.02;54.23;98940.75;5033829;28;20467;-66
2023/01/14 12:21:47;;;;;;;4.30;1.80;;;;;;;8.30;51.31;98943.75;5033553;28;20047;-66
2023/01/14 12:24:20;;;;;;;4.68;1.90;;;;;;;8.46;49.63;98926.06;5025181;28;20024;-65
2023/01/14 12:26:47;;;;;;;13.23;7.30;;;;;;;8.73;49.49;98929.97;5044725;28;20021;-62
2023/01/14 12:29:19;;;;;;;6.93;3.00;;;;;;;8.69;49.62;98894.88;5050481;28;20038;-64